sensor_id;sensor_type;location;lat;lon;timestamp;P1;P2;P0
65383;PMS5003;51986;52.788;41.368;2023-07-31T00:00:52;37.00;31.50;25.00
65383;PMS5003;51986;52.788;41.368;2023-07-31T00:03:21;37.50;32.00;24.00
65383;PMS5003;51986;52.788;41.368;2023-07-31T00:05:48;38.00;32.00;24.50
65383;PMS5003;51986;52.788;41.368;2023-07-31T00:08:15;38.00;32.00;25.75
65383;PMS5003;51986;52.788;41.368;2023-07-31T00:10:42;40.00;34.00;27.00
65383;PMS5003;51986;52.788;41.368;2023-07-31T00:13:12;38.00;32.00;25.00
65383;PMS5003;51986;52.788;41.368;2023-07-31T00:15:39;40.00;34.00;27.00
65383;PMS5003;51986;52.788;41.368;2023-07-31T00:18:06;40.00;34.00;27.00
65383;PMS5003;51986;52.788;41.368;2023-07-31T00:20:35;38.00;33.00;26.00
65383;PMS5003;51986;52.788;41.368;2023-07-31T00:23:02;40.00;33.00;27.00
65383;PMS5003;51986;52.788;41.368;2023-07-31T00:25:29;38.00;32.00;25.50
65383;PMS5003;51986;52.788;41.368;2023-07-31T00:27:56;38.00;32.00;26.00
65383;PMS5003;51986;52.788;41.368;2023-07-31T00:30:25;40.00;34.00;27.00
65383;PMS5003;51986;52.788;41.368;2023-07-31T00:32:53;38.00;32.00;26.00
65383;PMS5003;51986;52.788;41.368;2023-07-31T00:35:20;39.00;32.50;26.50
65383;PMS5003;51986;52.788;41.368;2023-07-31T00:37:47;40.50;34.00;27.00
65383;PMS5003;51986;52.788;41.368;2023-07-31T00:40:14;38.00;31.50;26.00
65383;PMS5003;51986;52.788;41.368;2023-07-31T00:42:43;37.00;31.25;26.00
65383;PMS5003;51986;52.788;41.368;2023-07-31T00:45:10;41.50;35.00;28.00
65383;PMS5003;51986;52.788;41.368;2023-07-31T00:47:37;39.00;32.25;26.00
65383;PMS5003;51986;52.788;41.368;2023-07-31T00:50:04;40.00;34.00;28.00
65383;PMS5003;51986;52.788;41.368;2023-07-31T00:52:32;40.00;34.00;28.00
65383;PMS5003;51986;52.788;41.368;2023-07-31T00:54:59;38.00;31.50;26.00
65383;PMS5003;51986;52.788;41.368;2023-07-31T00:57:26;40.00;34.00;27.25
65383;PMS5003;51986;52.788;41.368;2023-07-31T00:59:53;39.00;32.50;26.25
65383;PMS5003;51986;52.788;41.368;2023-07-31T01:02:22;39.50;32.50;26.25
65383;PMS5003;51986;52.788;41.368;2023-07-31T01:04:51;41.00;34.00;27.00
65383;PMS5003;51986;52.788;41.368;2023-07-31T01:10:23;39.00;32.00;26.00
65383;PMS5003;51986;52.788;41.368;2023-07-31T01:12:56;39.00;32.50;26.00
65383;PMS5003;51986;52.788;41.368;2023-07-31T01:15:24;38.00;32.00;26.00
65383;PMS5003;51986;52.788;41.368;2023-07-31T01:17:51;39.00;32.75;26.00
65383;PMS5003;51986;52.788;41.368;2023-07-31T01:20:22;45.00;36.00;29.75
65383;PMS5003;51986;52.788;41.368;2023-07-31T01:22:58;42.00;34.50;29.00
65383;PMS5003;51986;52.788;41.368;2023-07-31T01:25:56;40.00;33.50;27.00
65383;PMS5003;51986;52.788;41.368;2023-07-31T01:28:33;39.00;32.50;26.75
65383;PMS5003;51986;52.788;41.368;2023-07-31T01:31:11;39.00;32.50;27.00
65383;PMS5003;51986;52.788;41.368;2023-07-31T01:33:42;41.00;35.00;27.00
65383;PMS5003;51986;52.788;41.368;2023-07-31T01:36:10;38.50;32.00;25.50
65383;PMS5003;51986;52.788;41.368;2023-07-31T01:38:38;39.00;32.00;26.25
65383;PMS5003;51986;52.788;41.368;2023-07-31T01:41:05;38.75;32.00;26.00
65383;PMS5003;51986;52.788;41.368;2023-07-31T01:43:32;41.25;34.50;28.00
65383;PMS5003;51986;52.788;41.368;2023-07-31T01:45:59;39.00;32.50;27.00
65383;PMS5003;51986;52.788;41.368;2023-07-31T01:48:26;39.50;33.50;27.50
65383;PMS5003;51986;52.788;41.368;2023-07-31T01:50:55;38.00;32.00;26.00
65383;PMS5003;51986;52.788;41.368;2023-07-31T01:53:26;40.00;33.75;27.50
65383;PMS5003;51986;52.788;41.368;2023-07-31T01:55:53;38.50;33.00;25.75
65383;PMS5003;51986;52.788;41.368;2023-07-31T01:58:20;39.00;32.50;26.00
65383;PMS5003;51986;52.788;41.368;2023-07-31T02:00:48;40.00;32.50;27.00
65383;PMS5003;51986;52.788;41.368;2023-07-31T02:03:14;42.00;34.75;29.00
65383;PMS5003;51986;52.788;41.368;2023-07-31T02:05:45;39.00;33.00;26.00
65383;PMS5003;51986;52.788;41.368;2023-07-31T02:08:13;38.25;32.00;27.00
65383;PMS5003;51986;52.788;41.368;2023-07-31T02:10:41;40.00;33.00;27.00
65383;PMS5003;51986;52.788;41.368;2023-07-31T02:13:09;39.00;32.00;26.00
65383;PMS5003;51986;52.788;41.368;2023-07-31T02:15:36;39.50;32.00;26.00
65383;PMS5003;51986;52.788;41.368;2023-07-31T02:18:04;41.00;34.25;28.25
65383;PMS5003;51986;52.788;41.368;2023-07-31T02:20:33;40.00;32.50;27.00
65383;PMS5003;51986;52.788;41.368;2023-07-31T02:23:01;42.00;35.00;27.00
65383;PMS5003;51986;52.788;41.368;2023-07-31T02:25:28;39.00;32.00;25.50
65383;PMS5003;51986;52.788;41.368;2023-07-31T02:27:55;39.00;31.00;25.00
65383;PMS5003;51986;52.788;41.368;2023-07-31T02:30:22;38.50;32.00;26.00
65383;PMS5003;51986;52.788;41.368;2023-07-31T02:32:50;38.00;31.00;26.00
65383;PMS5003;51986;52.788;41.368;2023-07-31T02:35:17;39.50;33.00;26.00
65383;PMS5003;51986;52.788;41.368;2023-07-31T02:37:45;41.50;35.00;29.00
65383;PMS5003;51986;52.788;41.368;2023-07-31T02:40:12;42.00;35.00;28.00
65383;PMS5003;51986;52.788;41.368;2023-07-31T02:42:39;38.50;32.50;26.00
65383;PMS5003;51986;52.788;41.368;2023-07-31T02:45:10;40.00;34.00;27.00
65383;PMS5003;51986;52.788;41.368;2023-07-31T02:47:37;39.50;32.00;25.00
65383;PMS5003;51986;52.788;41.368;2023-07-31T02:50:04;39.00;32.00;25.00
65383;PMS5003;51986;52.788;41.368;2023-07-31T02:52:32;38.25;32.75;25.00
65383;PMS5003;51986;52.788;41.368;2023-07-31T02:54:59;42.00;35.00;28.00
65383;PMS5003;51986;52.788;41.368;2023-07-31T02:57:26;39.00;33.00;27.00
65383;PMS5003;51986;52.788;41.368;2023-07-31T02:59:53;40.00;32.50;27.00
65383;PMS5003;51986;52.788;41.368;2023-07-31T03:02:19;40.00;33.00;27.00
65383;PMS5003;51986;52.788;41.368;2023-07-31T03:04:48;39.50;33.00;28.00
65383;PMS5003;51986;52.788;41.368;2023-07-31T03:07:15;44.00;36.75;29.00
65383;PMS5003;51986;52.788;41.368;2023-07-31T03:09:42;41.50;34.00;28.00
65383;PMS5003;51986;52.788;41.368;2023-07-31T03:12:09;41.00;34.00;28.00
65383;PMS5003;51986;52.788;41.368;2023-07-31T03:14:36;44.00;37.00;30.50
65383;PMS5003;51986;52.788;41.368;2023-07-31T03:17:05;44.00;37.00;30.25
65383;PMS5003;51986;52.788;41.368;2023-07-31T03:19:32;41.50;35.00;28.50
65383;PMS5003;51986;52.788;41.368;2023-07-31T03:21:59;41.50;35.00;28.50
65383;PMS5003;51986;52.788;41.368;2023-07-31T03:24:28;42.50;35.25;29.00
65383;PMS5003;51986;52.788;41.368;2023-07-31T03:26:55;43.00;35.00;29.25
65383;PMS5003;51986;52.788;41.368;2023-07-31T03:29:22;43.00;36.00;30.50
65383;PMS5003;51986;52.788;41.368;2023-07-31T03:31:51;43.00;36.00;30.00
65383;PMS5003;51986;52.788;41.368;2023-07-31T03:34:18;43.00;36.00;30.00
65383;PMS5003;51986;52.788;41.368;2023-07-31T03:36:45;47.25;39.25;32.50
65383;PMS5003;51986;52.788;41.368;2023-07-31T03:39:12;44.00;37.00;32.00
65383;PMS5003;51986;52.788;41.368;2023-07-31T03:41:39;49.00;41.00;34.00
65383;PMS5003;51986;52.788;41.368;2023-07-31T03:44:06;45.50;37.50;31.50
65383;PMS5003;51986;52.788;41.368;2023-07-31T03:46:33;49.50;41.00;34.00
65383;PMS5003;51986;52.788;41.368;2023-07-31T03:49:00;46.00;38.00;31.50
65383;PMS5003;51986;52.788;41.368;2023-07-31T03:51:28;49.00;39.25;32.50
65383;PMS5003;51986;52.788;41.368;2023-07-31T03:53:55;50.00;40.00;32.25
65383;PMS5003;51986;52.788;41.368;2023-07-31T03:56:22;46.50;39.00;33.50
65383;PMS5003;51986;52.788;41.368;2023-07-31T03:58:49;47.00;39.50;34.00
65383;PMS5003;51986;52.788;41.368;2023-07-31T04:01:15;46.00;38.50;34.00
65383;PMS5003;51986;52.788;41.368;2023-07-31T04:03:42;47.50;39.00;33.00
65383;PMS5003;51986;52.788;41.368;2023-07-31T04:06:09;47.00;38.50;34.00
65383;PMS5003;51986;52.788;41.368;2023-07-31T04:08:39;47.25;39.00;34.00
65383;PMS5003;51986;52.788;41.368;2023-07-31T04:11:06;47.00;38.50;34.00
65383;PMS5003;51986;52.788;41.368;2023-07-31T04:13:33;46.50;39.00;33.00
65383;PMS5003;51986;52.788;41.368;2023-07-31T04:15:59;45.50;38.00;31.50
65383;PMS5003;51986;52.788;41.368;2023-07-31T04:18:26;46.00;38.00;32.00
65383;PMS5003;51986;52.788;41.368;2023-07-31T04:20:53;46.00;38.00;32.00
65383;PMS5003;51986;52.788;41.368;2023-07-31T04:23:20;46.50;39.00;32.00
65383;PMS5003;51986;52.788;41.368;2023-07-31T04:25:47;47.50;40.00;34.00
65383;PMS5003;51986;52.788;41.368;2023-07-31T04:28:14;46.50;38.50;33.00
65383;PMS5003;51986;52.788;41.368;2023-07-31T04:30:42;46.00;39.00;32.00
65383;PMS5003;51986;52.788;41.368;2023-07-31T04:33:10;46.00;38.50;32.00
65383;PMS5003;51986;52.788;41.368;2023-07-31T04:35:37;45.75;38.00;32.00
65383;PMS5003;51986;52.788;41.368;2023-07-31T04:38:04;48.00;39.00;32.00
65383;PMS5003;51986;52.788;41.368;2023-07-31T04:40:31;47.00;39.00;32.00
65383;PMS5003;51986;52.788;41.368;2023-07-31T04:42:58;46.50;38.50;32.00
65383;PMS5003;51986;52.788;41.368;2023-07-31T04:45:25;46.50;38.00;32.00
65383;PMS5003;51986;52.788;41.368;2023-07-31T04:47:52;46.50;38.50;32.00
65383;PMS5003;51986;52.788;41.368;2023-07-31T04:50:19;47.00;39.00;32.50
65383;PMS5003;51986;52.788;41.368;2023-07-31T04:52:46;48.00;39.00;33.00
65383;PMS5003;51986;52.788;41.368;2023-07-31T04:55:13;46.50;38.50;32.50
65383;PMS5003;51986;52.788;41.368;2023-07-31T04:57:40;45.00;37.50;32.00
65383;PMS5003;51986;52.788;41.368;2023-07-31T05:00:15;43.50;36.00;31.00
65383;PMS5003;51986;52.788;41.368;2023-07-31T05:02:45;43.00;36.00;30.50
65383;PMS5003;51986;52.788;41.368;2023-07-31T05:05:13;43.00;36.00;30.50
65383;PMS5003;51986;52.788;41.368;2023-07-31T05:07:40;48.75;41.25;35.50
65383;PMS5003;51986;52.788;41.368;2023-07-31T05:10:08;47.50;38.75;33.25
65383;PMS5003;51986;52.788;41.368;2023-07-31T05:12:36;51.00;40.75;35.25
65383;PMS5003;51986;52.788;41.368;2023-07-31T05:15:03;44.50;37.00;31.00
65383;PMS5003;51986;52.788;41.368;2023-07-31T05:17:34;43.00;36.00;29.50
65383;PMS5003;51986;52.788;41.368;2023-07-31T05:20:01;49.00;39.00;32.25
65383;PMS5003;51986;52.788;41.368;2023-07-31T05:22:28;45.50;38.00;33.00
65383;PMS5003;51986;52.788;41.368;2023-07-31T05:24:55;49.00;40.00;35.00
65383;PMS5003;51986;52.788;41.368;2023-07-31T05:27:22;43.00;36.00;30.00
65383;PMS5003;51986;52.788;41.368;2023-07-31T05:29:49;44.00;36.50;30.75
65383;PMS5003;51986;52.788;41.368;2023-07-31T05:32:16;46.50;38.00;30.75
65383;PMS5003;51986;52.788;41.368;2023-07-31T05:34:43;54.75;45.25;38.25
65383;PMS5003;51986;52.788;41.368;2023-07-31T05:37:10;52.00;43.00;38.00
65383;PMS5003;51986;52.788;41.368;2023-07-31T05:39:37;54.00;44.25;37.00
65383;PMS5003;51986;52.788;41.368;2023-07-31T05:42:04;47.50;38.50;31.00
65383;PMS5003;51986;52.788;41.368;2023-07-31T05:44:32;42.00;34.00;29.00
65383;PMS5003;51986;52.788;41.368;2023-07-31T05:46:59;41.50;34.50;29.00
65383;PMS5003;51986;52.788;41.368;2023-07-31T05:49:26;46.75;39.00;32.00
65383;PMS5003;51986;52.788;41.368;2023-07-31T05:51:53;43.00;35.00;29.00
65383;PMS5003;51986;52.788;41.368;2023-07-31T05:54:20;44.00;36.00;29.75
65383;PMS5003;51986;52.788;41.368;2023-07-31T05:56:47;44.00;36.00;30.00
65383;PMS5003;51986;52.788;41.368;2023-07-31T05:59:14;44.00;37.00;30.50
65383;PMS5003;51986;52.788;41.368;2023-07-31T06:01:42;47.00;38.00;31.00
65383;PMS5003;51986;52.788;41.368;2023-07-31T06:04:09;46.00;37.00;32.00
65383;PMS5003;51986;52.788;41.368;2023-07-31T06:06:37;42.50;35.00;29.00
65383;PMS5003;51986;52.788;41.368;2023-07-31T06:09:04;41.50;35.00;29.00
65383;PMS5003;51986;52.788;41.368;2023-07-31T06:11:31;45.75;38.00;31.25
65383;PMS5003;51986;52.788;41.368;2023-07-31T06:13:58;43.50;35.50;29.50
65383;PMS5003;51986;52.788;41.368;2023-07-31T06:16:25;43.50;36.25;29.50
65383;PMS5003;51986;52.788;41.368;2023-07-31T06:18:52;44.00;37.00;30.00
65383;PMS5003;51986;52.788;41.368;2023-07-31T06:21:19;41.50;34.50;29.00
65383;PMS5003;51986;52.788;41.368;2023-07-31T06:23:46;44.00;38.00;31.25
65383;PMS5003;51986;52.788;41.368;2023-07-31T06:26:13;42.75;35.50;29.00
65383;PMS5003;51986;52.788;41.368;2023-07-31T06:28:40;45.00;38.00;31.00
65383;PMS5003;51986;52.788;41.368;2023-07-31T06:31:07;42.00;35.00;29.00
65383;PMS5003;51986;52.788;41.368;2023-07-31T06:33:34;41.00;35.00;28.50
65383;PMS5003;51986;52.788;41.368;2023-07-31T06:36:01;42.00;35.00;29.00
65383;PMS5003;51986;52.788;41.368;2023-07-31T06:38:28;43.00;36.00;29.00
65383;PMS5003;51986;52.788;41.368;2023-07-31T06:40:55;47.00;38.00;31.50
65383;PMS5003;51986;52.788;41.368;2023-07-31T06:43:22;43.25;35.50;29.00
65383;PMS5003;51986;52.788;41.368;2023-07-31T06:45:49;41.50;34.50;29.00
65383;PMS5003;51986;52.788;41.368;2023-07-31T06:48:16;41.00;34.50;28.00
65383;PMS5003;51986;52.788;41.368;2023-07-31T06:50:43;41.00;34.00;28.00
65383;PMS5003;51986;52.788;41.368;2023-07-31T06:53:10;42.00;35.00;29.00
65383;PMS5003;51986;52.788;41.368;2023-07-31T06:55:37;45.00;37.50;31.00
65383;PMS5003;51986;52.788;41.368;2023-07-31T06:58:04;43.50;35.50;29.00
65383;PMS5003;51986;52.788;41.368;2023-07-31T07:00:31;43.00;35.50;29.00
65383;PMS5003;51986;52.788;41.368;2023-07-31T07:02:58;41.00;34.50;29.00
65383;PMS5003;51986;52.788;41.368;2023-07-31T07:05:25;44.00;37.00;31.00
65383;PMS5003;51986;52.788;41.368;2023-07-31T07:07:52;43.75;36.25;30.25
65383;PMS5003;51986;52.788;41.368;2023-07-31T07:10:19;43.50;36.50;31.00
65383;PMS5003;51986;52.788;41.368;2023-07-31T07:12:47;42.50;35.50;29.50
65383;PMS5003;51986;52.788;41.368;2023-07-31T07:15:15;41.00;35.00;28.50
65383;PMS5003;51986;52.788;41.368;2023-07-31T07:17:42;44.00;38.00;31.00
65383;PMS5003;51986;52.788;41.368;2023-07-31T07:20:09;42.00;35.50;29.00
65383;PMS5003;51986;52.788;41.368;2023-07-31T07:22:36;41.50;35.50;29.00
65383;PMS5003;51986;52.788;41.368;2023-07-31T07:25:03;42.50;35.50;29.00
65383;PMS5003;51986;52.788;41.368;2023-07-31T07:27:31;42.00;36.00;29.50
65383;PMS5003;51986;52.788;41.368;2023-07-31T07:29:58;41.00;34.50;28.50
65383;PMS5003;51986;52.788;41.368;2023-07-31T07:32:25;41.75;35.00;28.75
65383;PMS5003;51986;52.788;41.368;2023-07-31T07:34:52;43.00;35.75;29.00
65383;PMS5003;51986;52.788;41.368;2023-07-31T07:37:19;42.25;35.50;29.00
65383;PMS5003;51986;52.788;41.368;2023-07-31T07:39:46;41.00;34.00;29.00
65383;PMS5003;51986;52.788;41.368;2023-07-31T07:42:13;41.00;34.00;28.50
65383;PMS5003;51986;52.788;41.368;2023-07-31T07:44:40;40.00;34.00;28.00
65383;PMS5003;51986;52.788;41.368;2023-07-31T07:47:07;40.00;34.00;28.00
65383;PMS5003;51986;52.788;41.368;2023-07-31T07:49:34;40.00;34.00;27.00
65383;PMS5003;51986;52.788;41.368;2023-07-31T07:52:02;40.50;33.50;29.00
65383;PMS5003;51986;52.788;41.368;2023-07-31T07:54:30;45.00;38.00;32.00
65383;PMS5003;51986;52.788;41.368;2023-07-31T07:56:57;44.00;36.00;30.25
65383;PMS5003;51986;52.788;41.368;2023-07-31T07:59:24;41.75;35.00;29.00
65383;PMS5003;51986;52.788;41.368;2023-07-31T08:01:51;44.00;37.00;30.00
65383;PMS5003;51986;52.788;41.368;2023-07-31T08:04:18;42.00;35.00;29.00
65383;PMS5003;51986;52.788;41.368;2023-07-31T08:06:45;42.00;35.00;29.00
65383;PMS5003;51986;52.788;41.368;2023-07-31T08:09:12;40.00;34.00;27.50
65383;PMS5003;51986;52.788;41.368;2023-07-31T08:11:39;41.50;35.00;28.75
65383;PMS5003;51986;52.788;41.368;2023-07-31T08:14:06;45.25;38.00;31.00
65383;PMS5003;51986;52.788;41.368;2023-07-31T08:16:33;42.00;35.50;29.00
65383;PMS5003;51986;52.788;41.368;2023-07-31T08:19:00;44.00;37.00;30.50
65383;PMS5003;51986;52.788;41.368;2023-07-31T08:21:27;42.50;35.50;29.00
65383;PMS5003;51986;52.788;41.368;2023-07-31T08:23:54;42.75;35.00;29.00
65383;PMS5003;51986;52.788;41.368;2023-07-31T08:26:21;44.00;36.00;30.00
65383;PMS5003;51986;52.788;41.368;2023-07-31T08:28:48;47.00;39.00;32.00
65383;PMS5003;51986;52.788;41.368;2023-07-31T08:31:15;41.50;35.50;29.00
65383;PMS5003;51986;52.788;41.368;2023-07-31T08:33:42;42.00;35.00;29.00
65383;PMS5003;51986;52.788;41.368;2023-07-31T08:36:09;42.50;35.50;30.50
65383;PMS5003;51986;52.788;41.368;2023-07-31T08:38:36;42.00;35.00;29.50
65383;PMS5003;51986;52.788;41.368;2023-07-31T08:41:03;41.00;34.25;28.25
65383;PMS5003;51986;52.788;41.368;2023-07-31T08:43:30;41.00;35.00;29.50
65383;PMS5003;51986;52.788;41.368;2023-07-31T08:45:58;44.75;36.50;29.75
65383;PMS5003;51986;52.788;41.368;2023-07-31T08:48:26;50.00;40.00;35.00
65383;PMS5003;51986;52.788;41.368;2023-07-31T08:50:55;44.00;37.00;30.50
65383;PMS5003;51986;52.788;41.368;2023-07-31T08:53:22;46.00;38.00;31.00
65383;PMS5003;51986;52.788;41.368;2023-07-31T08:55:49;42.75;35.00;30.00
65383;PMS5003;51986;52.788;41.368;2023-07-31T08:58:19;42.50;35.50;29.00
65383;PMS5003;51986;52.788;41.368;2023-07-31T09:00:47;41.00;35.00;29.00
65383;PMS5003;51986;52.788;41.368;2023-07-31T09:03:19;41.50;34.50;29.00
65383;PMS5003;51986;52.788;41.368;2023-07-31T09:05:49;43.00;36.00;29.25
65383;PMS5003;51986;52.788;41.368;2023-07-31T09:08:18;41.25;35.00;29.50
65383;PMS5003;51986;52.788;41.368;2023-07-31T09:10:47;40.50;34.00;28.00
65383;PMS5003;51986;52.788;41.368;2023-07-31T09:13:15;41.25;34.25;28.00
65383;PMS5003;51986;52.788;41.368;2023-07-31T09:15:43;43.00;35.00;28.25
65383;PMS5003;51986;52.788;41.368;2023-07-31T09:18:12;41.00;35.00;28.50
65383;PMS5003;51986;52.788;41.368;2023-07-31T09:20:39;41.00;35.00;29.00
65383;PMS5003;51986;52.788;41.368;2023-07-31T09:23:13;41.50;35.00;29.00
65383;PMS5003;51986;52.788;41.368;2023-07-31T09:25:43;41.00;34.00;28.00
65383;PMS5003;51986;52.788;41.368;2023-07-31T09:28:11;40.00;34.00;28.00
65383;PMS5003;51986;52.788;41.368;2023-07-31T09:30:46;41.00;34.00;28.00
65383;PMS5003;51986;52.788;41.368;2023-07-31T09:33:15;43.50;37.00;30.00
65383;PMS5003;51986;52.788;41.368;2023-07-31T09:35:43;41.00;34.00;27.50
65383;PMS5003;51986;52.788;41.368;2023-07-31T09:38:11;41.00;34.00;28.00
65383;PMS5003;51986;52.788;41.368;2023-07-31T09:43:08;41.00;34.50;29.00
65383;PMS5003;51986;52.788;41.368;2023-07-31T09:45:40;41.00;34.50;28.00
65383;PMS5003;51986;52.788;41.368;2023-07-31T09:48:09;41.00;34.50;28.00
65383;PMS5003;51986;52.788;41.368;2023-07-31T09:50:39;44.00;37.00;30.00
65383;PMS5003;51986;52.788;41.368;2023-07-31T09:53:07;42.00;35.00;28.00
65383;PMS5003;51986;52.788;41.368;2023-07-31T09:55:35;45.00;37.00;30.00
65383;PMS5003;51986;52.788;41.368;2023-07-31T09:58:05;41.00;34.50;28.00
65383;PMS5003;51986;52.788;41.368;2023-07-31T10:00:33;41.00;34.00;28.50
65383;PMS5003;51986;52.788;41.368;2023-07-31T10:03:05;41.25;34.00;28.00
65383;PMS5003;51986;52.788;41.368;2023-07-31T10:05:35;42.00;35.00;28.00
65383;PMS5003;51986;52.788;41.368;2023-07-31T10:08:13;42.00;34.50;28.00
65383;PMS5003;51986;52.788;41.368;2023-07-31T10:10:42;42.00;35.00;28.00
65383;PMS5003;51986;52.788;41.368;2023-07-31T10:13:11;41.00;35.00;28.00
65383;PMS5003;51986;52.788;41.368;2023-07-31T10:15:39;41.00;34.50;28.00
65383;PMS5003;51986;52.788;41.368;2023-07-31T10:18:07;49.00;40.00;33.50
65383;PMS5003;51986;52.788;41.368;2023-07-31T10:20:35;44.25;37.00;31.00
65383;PMS5003;51986;52.788;41.368;2023-07-31T10:23:03;47.00;39.00;33.00
65383;PMS5003;51986;52.788;41.368;2023-07-31T10:25:30;45.25;37.50;32.50
65383;PMS5003;51986;52.788;41.368;2023-07-31T10:27:59;43.00;36.00;30.00
65383;PMS5003;51986;52.788;41.368;2023-07-31T10:30:27;42.50;35.50;29.00
65383;PMS5003;51986;52.788;41.368;2023-07-31T10:32:57;41.00;35.00;29.50
65383;PMS5003;51986;52.788;41.368;2023-07-31T10:35:24;41.00;34.50;29.00
65383;PMS5003;51986;52.788;41.368;2023-07-31T10:37:52;42.00;35.25;29.00
65383;PMS5003;51986;52.788;41.368;2023-07-31T10:40:27;42.25;35.00;29.50
65383;PMS5003;51986;52.788;41.368;2023-07-31T10:42:55;41.50;35.00;29.50
65383;PMS5003;51986;52.788;41.368;2023-07-31T10:45:30;40.75;34.00;28.75
65383;PMS5003;51986;52.788;41.368;2023-07-31T10:48:02;40.25;34.25;29.00
65383;PMS5003;51986;52.788;41.368;2023-07-31T10:50:31;43.50;35.50;29.00
65383;PMS5003;51986;52.788;41.368;2023-07-31T10:53:03;42.25;35.00;29.50
65383;PMS5003;51986;52.788;41.368;2023-07-31T10:55:36;44.00;37.00;30.00
65383;PMS5003;51986;52.788;41.368;2023-07-31T11:00:41;45.50;37.00;31.00
65383;PMS5003;51986;52.788;41.368;2023-07-31T11:03:14;41.00;34.00;29.00
65383;PMS5003;51986;52.788;41.368;2023-07-31T11:05:49;41.00;34.50;29.00
65383;PMS5003;51986;52.788;41.368;2023-07-31T11:08:18;41.00;34.25;29.00
65383;PMS5003;51986;52.788;41.368;2023-07-31T11:10:46;40.50;34.00;28.00
65383;PMS5003;51986;52.788;41.368;2023-07-31T11:13:14;41.00;34.00;28.50
65383;PMS5003;51986;52.788;41.368;2023-07-31T11:15:41;41.00;35.00;29.00
65383;PMS5003;51986;52.788;41.368;2023-07-31T11:18:08;42.50;35.25;28.50
65383;PMS5003;51986;52.788;41.368;2023-07-31T11:20:36;41.00;35.00;29.00
65383;PMS5003;51986;52.788;41.368;2023-07-31T11:23:08;40.50;34.00;28.00
65383;PMS5003;51986;52.788;41.368;2023-07-31T11:25:36;43.00;36.00;30.00
65383;PMS5003;51986;52.788;41.368;2023-07-31T11:28:09;41.00;34.50;28.25
65383;PMS5003;51986;52.788;41.368;2023-07-31T11:30:37;40.50;34.00;28.00
65383;PMS5003;51986;52.788;41.368;2023-07-31T11:33:05;52.00;41.50;37.00
65383;PMS5003;51986;52.788;41.368;2023-07-31T11:35:34;46.00;37.00;32.25
65383;PMS5003;51986;52.788;41.368;2023-07-31T11:38:02;44.00;36.00;32.00
65383;PMS5003;51986;52.788;41.368;2023-07-31T11:40:29;46.00;38.00;32.00
65383;PMS5003;51986;52.788;41.368;2023-07-31T11:42:58;42.50;35.00;29.00
65383;PMS5003;51986;52.788;41.368;2023-07-31T11:45:31;40.50;34.50;29.00
65383;PMS5003;51986;52.788;41.368;2023-07-31T11:47:59;41.00;34.00;28.00
65383;PMS5003;51986;52.788;41.368;2023-07-31T11:50:27;41.00;35.00;28.50
65383;PMS5003;51986;52.788;41.368;2023-07-31T11:52:55;44.00;37.00;31.00
65383;PMS5003;51986;52.788;41.368;2023-07-31T11:55:26;41.00;35.00;28.50
65383;PMS5003;51986;52.788;41.368;2023-07-31T11:57:54;41.50;35.00;28.00
65383;PMS5003;51986;52.788;41.368;2023-07-31T12:00:23;41.50;34.00;28.00
65383;PMS5003;51986;52.788;41.368;2023-07-31T12:02:51;44.00;37.00;30.25
65383;PMS5003;51986;52.788;41.368;2023-07-31T12:05:19;43.00;35.50;28.50
65383;PMS5003;51986;52.788;41.368;2023-07-31T12:07:50;40.75;34.00;28.00
65383;PMS5003;51986;52.788;41.368;2023-07-31T12:12:56;41.00;35.00;28.25
65383;PMS5003;51986;52.788;41.368;2023-07-31T12:15:46;45.00;37.00;31.00
65383;PMS5003;51986;52.788;41.368;2023-07-31T12:18:13;43.00;36.00;30.00
65383;PMS5003;51986;52.788;41.368;2023-07-31T12:20:43;42.00;35.00;30.00
65383;PMS5003;51986;52.788;41.368;2023-07-31T12:23:16;45.00;37.00;31.00
65383;PMS5003;51986;52.788;41.368;2023-07-31T12:25:44;45.00;37.00;31.00
65383;PMS5003;51986;52.788;41.368;2023-07-31T12:28:11;44.75;36.50;30.00
65383;PMS5003;51986;52.788;41.368;2023-07-31T12:30:39;41.50;35.00;29.50
65383;PMS5003;51986;52.788;41.368;2023-07-31T12:33:12;44.00;37.00;32.00
65383;PMS5003;51986;52.788;41.368;2023-07-31T12:35:44;41.00;34.00;29.00
65383;PMS5003;51986;52.788;41.368;2023-07-31T12:38:13;40.50;34.00;28.00
65383;PMS5003;51986;52.788;41.368;2023-07-31T12:40:40;40.00;34.50;28.00
65383;PMS5003;51986;52.788;41.368;2023-07-31T12:43:08;43.75;36.25;30.00
65383;PMS5003;51986;52.788;41.368;2023-07-31T12:45:35;43.50;36.50;30.00
65383;PMS5003;51986;52.788;41.368;2023-07-31T12:48:02;43.00;36.00;29.50
65383;PMS5003;51986;52.788;41.368;2023-07-31T12:50:30;45.00;38.00;31.50
65383;PMS5003;51986;52.788;41.368;2023-07-31T12:52:57;41.00;35.00;28.50
65383;PMS5003;51986;52.788;41.368;2023-07-31T12:55:24;41.00;34.00;28.00
65383;PMS5003;51986;52.788;41.368;2023-07-31T12:57:51;41.00;34.50;28.00
65383;PMS5003;51986;52.788;41.368;2023-07-31T13:00:20;41.00;35.00;28.00
65383;PMS5003;51986;52.788;41.368;2023-07-31T13:02:48;41.50;35.00;28.00
65383;PMS5003;51986;52.788;41.368;2023-07-31T13:05:15;43.00;37.00;29.75
65383;PMS5003;51986;52.788;41.368;2023-07-31T13:07:42;41.00;35.00;28.00
65383;PMS5003;51986;52.788;41.368;2023-07-31T13:10:09;41.00;34.50;28.00
65383;PMS5003;51986;52.788;41.368;2023-07-31T13:12:36;42.75;35.75;28.75
65383;PMS5003;51986;52.788;41.368;2023-07-31T13:15:06;43.00;36.00;29.00
65383;PMS5003;51986;52.788;41.368;2023-07-31T13:17:33;45.50;38.00;30.50
65383;PMS5003;51986;52.788;41.368;2023-07-31T13:20:02;42.50;35.50;29.00
65383;PMS5003;51986;52.788;41.368;2023-07-31T13:22:29;42.50;35.50;29.00
65383;PMS5003;51986;52.788;41.368;2023-07-31T13:24:56;43.00;36.00;29.50
65383;PMS5003;51986;52.788;41.368;2023-07-31T13:27:23;42.00;35.00;29.50
65383;PMS5003;51986;52.788;41.368;2023-07-31T13:29:50;41.00;35.00;29.50
65383;PMS5003;51986;52.788;41.368;2023-07-31T13:32:18;41.50;35.00;29.00
65383;PMS5003;51986;52.788;41.368;2023-07-31T13:34:47;41.50;35.00;29.50
65383;PMS5003;51986;52.788;41.368;2023-07-31T13:37:14;43.00;36.00;30.00
65383;PMS5003;51986;52.788;41.368;2023-07-31T13:39:42;43.00;35.50;29.50
65383;PMS5003;51986;52.788;41.368;2023-07-31T13:42:09;43.00;35.00;29.50
65383;PMS5003;51986;52.788;41.368;2023-07-31T13:44:36;43.00;36.00;30.00
65383;PMS5003;51986;52.788;41.368;2023-07-31T13:47:03;42.00;35.00;29.00
65383;PMS5003;51986;52.788;41.368;2023-07-31T13:49:31;42.00;35.00;28.00